Time;durP1;ratioP1;P1;durP2;ratioP2;P2;SDS_P1;SDS_P2;PMS_P1;PMS_P2;Temp;Humidity;BMP_temperature;BMP_pressure;BME280_temperature;BME280_humidity;BME280_pressure;Samples;Min_cycle;Max_cycle;Signal;HPM_P1;HPM_P2
2023/06/27 00:02:53;;;;;;;2.47;2.00;;;24.20;20.90;;;;;;10437558;28;20758;-67
2023/06/27 00:07:57;;;;;;;2.90;2.00;;;24.10;21.10;;;;;;10432644;28;20232;-68
2023/06/27 00:13:00;;;;;;;2.83;2.00;;;24.10;21.20;;;;;;10436244;28;20216;-68
2023/06/27 00:18:08;;;;;;;6.17;2.20;;;24.00;21.30;;;;;;10435153;28;20841;-68
2023/06/27 00:23:19;;;;;;;3.87;2.33;;;23.90;21.50;;;;;;10442396;28;20237;-68
2023/06/27 00:28:22;;;;;;;3.23;2.00;;;23.80;21.70;;;;;;10436127;28;20237;-68
2023/06/27 00:33:28;;;;;;;3.57;1.90;;;23.80;21.40;;;;;;10443446;28;21011;-68
2023/06/27 00:38:31;;;;;;;2.77;2.20;;;23.80;21.80;;;;;;10432559;28;20728;-67
2023/06/27 00:43:34;;;;;;;2.03;1.80;;;23.60;21.70;;;;;;10436712;28;20238;-68
2023/06/27 00:48:40;;;;;;;4.13;2.10;;;23.60;21.90;;;;;;10433238;28;20602;-68
2023/06/27 00:53:43;;;;;;;2.40;2.20;;;23.50;22.30;;;;;;10432783;28;20222;-68
2023/06/27 00:58:46;;;;;;;3.27;2.10;;;23.40;22.10;;;;;;10429236;28;20797;-68
2023/06/27 01:03:51;;;;;;;2.27;2.00;;;23.40;22.30;;;;;;10430818;28;20240;-68
2023/06/27 01:09:02;;;;;;;3.03;2.30;;;23.30;22.60;;;;;;10435180;28;20234;-68
2023/06/27 01:14:07;;;;;;;3.13;1.90;;;23.20;22.90;;;;;;10430435;28;20673;-68
2023/06/27 01:19:13;;;;;;;2.27;1.90;;;23.10;22.70;;;;;;10432902;28;20648;-68
2023/06/27 01:24:18;;;;;;;2.90;2.00;;;23.00;22.80;;;;;;10427604;28;20229;-68
2023/06/27 01:29:22;;;;;;;5.17;2.37;;;23.00;23.00;;;;;;10428216;28;20821;-68
2023/06/27 01:34:33;;;;;;;3.27;2.13;;;23.00;22.80;;;;;;10434280;28;20534;-68
2023/06/27 01:39:45;;;;;;;3.40;2.03;;;23.00;23.40;;;;;;10432079;28;20320;-67
2023/06/27 01:44:51;;;;;;;3.53;2.20;;;22.90;23.30;;;;;;10433917;28;20607;-68
2023/06/27 01:49:54;;;;;;;3.97;2.07;;;22.90;23.00;;;;;;10429705;28;20319;-68
2023/06/27 01:54:59;;;;;;;2.50;1.90;;;22.90;23.00;;;;;;10437342;28;20640;-68
2023/06/27 02:00:04;;;;;;;1.70;1.60;;;22.90;23.20;;;;;;10431808;28;20224;-68
2023/06/27 02:05:08;;;;;;;4.43;2.10;;;22.80;23.10;;;;;;10422936;28;20938;-68
2023/06/27 02:10:13;;;;;;;2.47;1.87;;;22.70;23.20;;;;;;10428421;28;20225;-68
2023/06/27 02:15:16;;;;;;;5.30;2.00;;;22.60;23.60;;;;;;10427021;28;20235;-68
2023/06/27 02:20:19;;;;;;;2.63;1.90;;;22.50;23.60;;;;;;10425744;28;20225;-68
2023/06/27 02:25:24;;;;;;;5.10;2.10;;;22.40;23.60;;;;;;10435941;28;20605;-68
2023/06/27 02:30:27;;;;;;;2.73;2.23;;;22.30;24.00;;;;;;10425348;28;20328;-68
2023/06/27 02:35:30;;;;;;;2.60;2.23;;;22.30;23.80;;;;;;10420548;28;20275;-68
2023/06/27 02:40:35;;;;;;;2.83;2.23;;;22.30;24.00;;;;;;10422318;28;20288;-68
2023/06/27 02:45:38;;;;;;;2.77;1.80;;;22.30;24.10;;;;;;10423356;28;20237;-68
2023/06/27 02:50:45;;;;;;;2.67;2.10;;;22.30;23.90;;;;;;10425817;28;20226;-68
2023/06/27 02:55:50;;;;;;;2.57;1.90;;;22.40;24.00;;;;;;10424200;28;20324;-68
2023/06/27 03:00:54;;;;;;;2.10;1.90;;;22.40;24.20;;;;;;10429761;28;20316;-68
2023/06/27 03:05:58;;;;;;;2.07;1.70;;;22.40;24.10;;;;;;10430025;28;20351;-68
2023/06/27 03:11:03;;;;;;;2.23;1.90;;;22.40;24.00;;;;;;10426262;28;20692;-68
2023/06/27 03:16:06;;;;;;;2.83;1.70;;;22.40;24.10;;;;;;10429353;28;20248;-68
2023/06/27 03:21:09;;;;;;;1.73;1.60;;;22.40;24.00;;;;;;10429359;28;20312;-68
2023/06/27 03:26:13;;;;;;;1.90;1.70;;;22.30;24.00;;;;;;10431011;28;20806;-68
2023/06/27 03:31:16;;;;;;;5.87;2.03;;;22.30;24.20;;;;;;10436504;28;20228;-68
2023/06/27 03:36:20;;;;;;;3.83;1.83;;;22.10;24.10;;;;;;10434533;28;20279;-68
2023/06/27 03:41:24;;;;;;;2.93;1.70;;;22.10;24.20;;;;;;10435325;28;20732;-68
2023/06/27 03:46:27;;;;;;;3.20;1.77;;;22.10;24.30;;;;;;10438706;28;20232;-68
2023/06/27 03:51:31;;;;;;;3.40;2.13;;;22.00;24.10;;;;;;10438649;28;20230;-68
2023/06/27 03:56:35;;;;;;;3.73;1.87;;;22.00;24.30;;;;;;10435551;28;20304;-68
2023/06/27 04:01:41;;;;;;;3.27;2.13;;;21.90;24.40;;;;;;10434670;28;20233;-68
2023/06/27 04:06:44;;;;;;;2.50;2.03;;;21.90;24.40;;;;;;10441347;28;20240;-68
2023/06/27 04:11:49;;;;;;;4.53;1.90;;;21.80;24.50;;;;;;10434132;28;20225;-68
2023/06/27 04:16:52;;;;;;;2.10;1.60;;;21.70;24.70;;;;;;10429156;28;20240;-68
2023/06/27 04:21:56;;;;;;;3.00;1.80;;;21.70;24.70;;;;;;10436161;28;20746;-68
2023/06/27 04:27:00;;;;;;;1.70;1.60;;;21.60;24.60;;;;;;10426978;28;20867;-68
2023/06/27 04:32:03;;;;;;;4.00;1.83;;;21.50;25.00;;;;;;10435239;28;20227;-68
2023/06/27 04:37:07;;;;;;;2.10;1.90;;;21.50;25.00;;;;;;10427581;28;20229;-69
2023/06/27 04:42:12;;;;;;;3.03;2.10;;;21.40;25.10;;;;;;10441680;28;20793;-68
2023/06/27 04:47:15;;;;;;;3.17;2.00;;;21.40;25.60;;;;;;10433607;28;20287;-68
2023/06/27 04:52:18;;;;;;;1.90;1.70;;;21.30;25.30;;;;;;10433504;28;20567;-68
2023/06/27 04:57:23;;;;;;;6.93;1.90;;;21.20;25.60;;;;;;10435246;28;22535;-68
2023/06/27 05:02:26;;;;;;;3.30;1.80;;;21.20;25.90;;;;;;10431159;28;20230;-68
2023/06/27 05:07:29;;;;;;;3.33;1.90;;;21.20;25.80;;;;;;10431649;28;20272;-68
2023/06/27 05:12:33;;;;;;;2.73;1.80;;;21.20;26.00;;;;;;10431168;28;20240;-68
2023/06/27 05:17:37;;;;;;;4.63;1.97;;;21.30;26.20;;;;;;10434188;28;20229;-68
2023/06/27 05:22:40;;;;;;;4.30;1.93;;;21.30;26.10;;;;;;10434531;28;20333;-67
2023/06/27 05:27:44;;;;;;;2.07;1.80;;;21.30;26.20;;;;;;10431193;28;20320;-68
2023/06/27 05:32:48;;;;;;;4.53;1.70;;;21.20;26.10;;;;;;10433884;28;20239;-67
2023/06/27 05:37:51;;;;;;;4.43;1.97;;;21.20;26.10;;;;;;10432420;28;20733;-67
2023/06/27 05:42:56;;;;;;;3.43;1.80;;;21.10;26.10;;;;;;10424327;28;20243;-67
2023/06/27 05:47:59;;;;;;;2.50;1.80;;;21.10;26.10;;;;;;10430514;28;20267;-67
2023/06/27 05:53:02;;;;;;;3.33;1.90;;;21.00;26.00;;;;;;10432775;28;20228;-68
2023/06/27 05:58:07;;;;;;;3.23;1.80;;;21.10;26.10;;;;;;10431385;28;20225;-67
2023/06/27 06:03:10;;;;;;;2.20;1.53;;;21.00;26.50;;;;;;10432316;28;20749;-68
2023/06/27 06:08:13;;;;;;;4.10;1.80;;;21.00;26.00;;;;;;10432946;28;20221;-67
2023/06/27 06:13:18;;;;;;;4.57;2.20;;;21.00;26.00;;;;;;10434043;28;20228;-68
2023/06/27 06:18:21;;;;;;;2.97;1.87;;;21.10;26.70;;;;;;10421586;28;20236;-67
2023/06/27 06:23:25;;;;;;;2.87;1.90;;;21.10;26.10;;;;;;10426415;28;20229;-67
2023/06/27 06:28:29;;;;;;;3.57;1.90;;;21.20;26.20;;;;;;10420805;28;20332;-68
2023/06/27 06:33:33;;;;;;;1.90;1.63;;;21.20;26.80;;;;;;10422847;28;20224;-67
2023/06/27 06:38:36;;;;;;;3.33;1.83;;;21.20;26.30;;;;;;10419566;28;20233;-67
2023/06/27 06:43:41;;;;;;;3.17;1.90;;;21.20;26.90;;;;;;10426152;28;21001;-68
2023/06/27 06:48:44;;;;;;;4.03;1.70;;;21.30;27.10;;;;;;10422324;28;20588;-68
2023/06/27 06:53:47;;;;;;;3.50;1.67;;;21.30;26.40;;;;;;10421600;28;20719;-68
2023/06/27 06:58:51;;;;;;;3.90;1.83;;;21.40;26.60;;;;;;10415018;28;20616;-67
2023/06/27 07:03:55;;;;;;;3.70;2.13;;;21.50;26.60;;;;;;10420461;28;20232;-67
2023/06/27 07:08:58;;;;;;;2.20;1.70;;;21.50;26.30;;;;;;10423111;28;20230;-68
2023/06/27 07:14:02;;;;;;;1.50;1.40;;;21.60;26.50;;;;;;10418587;28;21142;-68
2023/06/27 07:19:06;;;;;;;1.40;1.30;;;21.70;26.50;;;;;;10417168;28;20229;-68
2023/06/27 07:24:09;;;;;;;1.97;1.50;;;21.80;26.50;;;;;;10414150;28;20221;-68
2023/06/27 07:29:14;;;;;;;3.67;1.53;;;21.90;26.30;;;;;;10420649;28;20229;-68
2023/06/27 07:34:17;;;;;;;2.80;1.70;;;22.00;26.20;;;;;;10416938;28;20784;-67
2023/06/27 07:39:20;;;;;;;1.90;1.30;;;22.10;26.30;;;;;;10415703;28;20213;-67
2023/06/27 07:44:30;;;;;;;3.03;1.70;;;22.20;26.10;;;;;;10414415;28;20228;-67
2023/06/27 07:49:33;;;;;;;1.90;1.63;;;22.40;25.90;;;;;;10421546;28;20239;-68
2023/06/27 07:54:37;;;;;;;2.37;1.67;;;22.50;25.70;;;;;;10415853;28;20229;-68
2023/06/27 07:59:41;;;;;;;2.43;1.23;;;22.70;25.80;;;;;;10417796;28;20770;-68
2023/06/27 08:04:44;;;;;;;3.37;1.67;;;22.90;25.60;;;;;;10422981;28;20221;-68
2023/06/27 08:09:48;;;;;;;1.77;1.50;;;22.90;25.30;;;;;;10428033;28;20268;-68
2023/06/27 08:14:52;;;;;;;4.07;1.77;;;23.10;25.40;;;;;;10427961;28;20313;-67
2023/06/27 08:19:55;;;;;;;1.63;1.40;;;23.20;24.90;;;;;;10423343;28;20761;-68
2023/06/27 08:24:59;;;;;;;2.33;1.80;;;23.40;25.00;;;;;;10428925;28;20311;-68
2023/06/27 08:30:03;;;;;;;1.77;1.67;;;23.50;24.40;;;;;;10428515;28;20655;-69
2023/06/27 08:35:08;;;;;;;2.10;1.57;;;23.60;24.50;;;;;;10417231;28;20224;-68
2023/06/27 08:40:14;;;;;;;3.20;2.10;;;23.60;24.80;;;;;;10420088;28;20506;-69
2023/06/27 08:45:18;;;;;;;3.07;1.80;;;23.80;24.60;;;;;;10423876;28;21213;-68
2023/06/27 08:50:24;;;;;;;3.10;1.60;;;23.90;24.20;;;;;;10431969;28;20236;-68
2023/06/27 08:55:35;;;;;;;1.80;1.70;;;23.90;23.80;;;;;;10434452;28;20225;-67
2023/06/27 09:00:39;;;;;;;1.90;1.50;;;23.90;23.40;;;;;;10431447;28;20229;-67
2023/06/27 09:05:44;;;;;;;1.73;1.63;;;23.90;23.80;;;;;;10432683;28;20230;-69
2023/06/27 09:10:47;;;;;;;3.83;1.63;;;23.90;23.70;;;;;;10425237;28;20239;-68
2023/06/27 09:15:52;;;;;;;3.33;1.90;;;23.90;24.70;;;;;;10426532;28;20229;-67
2023/06/27 09:20:56;;;;;;;3.63;1.70;;;24.00;23.70;;;;;;10417464;28;20233;-67
2023/06/27 09:26:09;;;;;;;1.93;1.60;;;24.10;23.90;;;;;;10421809;28;20228;-67
2023/06/27 09:31:14;;;;;;;1.63;1.53;;;24.30;23.20;;;;;;10422906;28;20209;-67
2023/06/27 09:36:31;;;;;;;2.57;2.00;;;24.40;23.00;;;;;;10429544;28;20228;-68
2023/06/27 09:41:42;;;;;;;1.80;1.70;;;24.30;21.50;;;;;;10424542;28;20236;-67
2023/06/27 09:46:47;;;;;;;2.50;1.70;;;24.30;22.60;;;;;;10419138;28;20221;-67
2023/06/27 09:51:52;;;;;;;2.23;1.57;;;24.30;22.90;;;;;;10423413;28;20248;-67
2023/06/27 09:56:56;;;;;;;2.80;1.70;;;24.30;22.90;;;;;;10435221;28;20243;-67
2023/06/27 10:02:01;;;;;;;1.57;1.47;;;24.30;22.60;;;;;;10427122;28;20317;-67
2023/06/27 10:07:04;;;;;;;1.83;1.50;;;24.30;22.60;;;;;;10426399;28;20322;-67
2023/06/27 10:12:09;;;;;;;1.73;1.50;;;24.30;22.80;;;;;;10429909;28;20322;-67
2023/06/27 10:17:18;;;;;;;2.80;1.80;;;24.30;22.50;;;;;;10438206;28;20228;-67
2023/06/27 10:22:26;;;;;;;2.53;2.33;;;24.30;22.10;;;;;;10428645;28;20404;-67
2023/06/27 10:27:34;;;;;;;2.70;1.47;;;24.20;22.50;;;;;;10431279;28;20729;-67
2023/06/27 10:32:43;;;;;;;2.77;1.73;;;24.20;22.50;;;;;;10430610;28;20287;-67
2023/06/27 10:38:06;;;;;;;1.70;1.60;;;24.20;22.40;;;;;;10427188;28;20264;-67
2023/06/27 10:43:09;;;;;;;3.60;1.70;;;24.20;21.70;;;;;;10428221;28;20570;-67
2023/06/27 10:48:26;;;;;;;1.70;1.60;;;24.30;22.60;;;;;;10427648;28;20238;-67
2023/06/27 10:53:29;;;;;;;2.70;1.60;;;24.40;22.50;;;;;;10426379;28;20292;-67
2023/06/27 10:58:44;;;;;;;2.17;1.80;;;24.60;22.20;;;;;;10431224;28;20320;-67
2023/06/27 11:03:57;;;;;;;2.03;1.70;;;24.70;20.60;;;;;;10435080;28;20252;-67
2023/06/27 11:09:03;;;;;;;2.27;1.67;;;24.80;21.10;;;;;;10428765;28;20237;-67
2023/06/27 11:14:07;;;;;;;1.60;1.50;;;24.80;22.00;;;;;;10428220;28;20224;-67
2023/06/27 11:19:12;;;;;;;1.50;1.40;;;24.90;21.20;;;;;;10438517;28;20707;-67
2023/06/27 11:24:23;;;;;;;1.63;1.50;;;25.00;20.50;;;;;;10428731;28;20597;-67
2023/06/27 11:29:27;;;;;;;2.03;1.77;;;25.10;20.10;;;;;;10423088;28;20225;-67
2023/06/27 11:34:40;;;;;;;2.47;1.67;;;25.10;19.80;;;;;;10424604;28;20728;-67
2023/06/27 11:39:53;;;;;;;2.13;1.60;;;25.00;19.40;;;;;;10422149;28;20225;-67
2023/06/27 11:44:56;;;;;;;1.87;1.50;;;24.90;18.80;;;;;;10430963;28;20244;-67
2023/06/27 11:50:09;;;;;;;2.83;1.60;;;24.90;20.10;;;;;;10433183;28;20787;-67
2023/06/27 11:55:12;;;;;;;2.97;1.50;;;25.00;19.80;;;;;;10431761;28;20733;-67
2023/06/27 12:00:18;;;;;;;1.97;1.57;;;25.10;20.70;;;;;;10432914;28;20228;-67
2023/06/27 12:05:26;;;;;;;2.57;1.50;;;25.20;20.00;;;;;;10427462;28;20476;-67
2023/06/27 12:10:29;;;;;;;2.67;1.50;;;25.20;20.10;;;;;;10415849;28;20240;-67
2023/06/27 12:15:44;;;;;;;3.17;1.63;;;25.40;20.20;;;;;;10413388;28;20344;-67
2023/06/27 12:20:49;;;;;;;1.93;1.60;;;25.40;19.50;;;;;;10437390;28;20316;-67
2023/06/27 12:25:52;;;;;;;2.63;1.47;;;25.50;19.50;;;;;;10428384;28;20675;-67
2023/06/27 12:30:55;;;;;;;2.60;1.50;;;25.50;19.50;;;;;;10428982;28;20311;-67
2023/06/27 12:36:00;;;;;;;2.03;1.57;;;25.60;19.70;;;;;;10435259;28;20322;-68
2023/06/27 12:41:03;;;;;;;2.87;1.40;;;25.70;19.90;;;;;;10428623;28;20232;-67
2023/06/27 12:46:06;;;;;;;3.10;1.50;;;25.70;19.50;;;;;;10430285;28;20620;-67
2023/06/27 12:51:12;;;;;;;2.10;1.57;;;25.80;19.90;;;;;;10433892;28;20240;-67
2023/06/27 12:56:17;;;;;;;2.00;1.53;;;25.80;19.00;;;;;;10425736;28;20236;-67
2023/06/27 13:01:23;;;;;;;2.37;1.50;;;25.80;18.90;;;;;;10424063;28;20224;-67
2023/06/27 13:06:28;;;;;;;2.23;1.40;;;25.80;18.90;;;;;;10428042;28;20232;-67
2023/06/27 13:11:31;;;;;;;1.63;1.53;;;25.90;19.00;;;;;;10433201;28;20231;-69
2023/06/27 13:16:34;;;;;;;2.23;1.60;;;25.90;19.00;;;;;;10422964;28;20247;-67
2023/06/27 13:21:39;;;;;;;3.27;1.70;;;25.90;19.00;;;;;;10433483;28;20235;-67
2023/06/27 13:26:45;;;;;;;2.77;1.70;;;25.90;19.00;;;;;;10425967;28;20240;-67
2023/06/27 13:31:48;;;;;;;2.47;1.70;;;25.90;19.00;;;;;;10425317;28;20233;-67
2023/06/27 13:36:53;;;;;;;2.00;1.80;;;25.80;19.00;;;;;;10426729;28;20591;-67
2023/06/27 13:41:56;;;;;;;1.97;1.70;;;25.80;18.90;;;;;;10421918;28;20229;-67
2023/06/27 13:46:59;;;;;;;1.77;1.67;;;25.80;18.90;;;;;;10428551;28;20336;-67
2023/06/27 13:52:06;;;;;;;1.80;1.60;;;25.80;18.90;;;;;;10427509;28;20312;-67
2023/06/27 13:57:09;;;;;;;3.03;2.03;;;25.70;18.90;;;;;;10429515;28;20340;-67
2023/06/27 14:02:13;;;;;;;3.20;1.90;;;25.70;18.90;;;;;;10438402;28;20224;-67
2023/06/27 14:07:17;;;;;;;1.90;1.80;;;25.70;18.90;;;;;;10431697;28;20229;-66
2023/06/27 14:12:21;;;;;;;2.00;1.80;;;25.70;18.90;;;;;;10438716;28;20332;-67
2023/06/27 14:17:24;;;;;;;3.57;1.80;;;25.80;18.90;;;;;;10430653;28;20320;-67
2023/06/27 14:22:29;;;;;;;1.80;1.70;;;25.80;18.90;;;;;;10431131;28;20229;-67
2023/06/27 14:27:32;;;;;;;2.10;1.90;;;25.90;18.30;;;;;;10422981;28;20237;-67
2023/06/27 14:32:36;;;;;;;4.87;1.70;;;25.90;18.20;;;;;;10432350;28;20307;-67
2023/06/27 14:37:40;;;;;;;2.23;1.70;;;25.80;18.70;;;;;;10430908;28;20627;-67
2023/06/27 14:42:44;;;;;;;1.80;1.70;;;25.80;18.50;;;;;;10431546;28;20230;-67
2023/06/27 14:47:47;;;;;;;2.40;1.50;;;25.80;18.10;;;;;;10433111;28;20243;-68
2023/06/27 14:52:52;;;;;;;1.83;1.60;;;25.70;18.30;;;;;;10439604;28;21134;-67
2023/06/27 14:57:56;;;;;;;1.67;1.57;;;25.70;17.90;;;;;;10429152;28;20229;-68
2023/06/27 15:02:59;;;;;;;2.83;1.80;;;25.80;18.70;;;;;;10432092;28;20758;-67
2023/06/27 15:08:04;;;;;;;1.77;1.60;;;25.90;18.20;;;;;;10428303;28;20592;-68
2023/06/27 15:13:07;;;;;;;1.77;1.50;;;26.00;17.50;;;;;;10426094;28;20594;-67
2023/06/27 15:18:11;;;;;;;2.20;1.53;;;26.00;17.70;;;;;;10425625;28;20315;-67
2023/06/27 15:23:15;;;;;;;2.43;1.60;;;26.00;17.70;;;;;;10445482;28;20743;-67
2023/06/27 15:28:39;;;;;;;1.80;1.70;;;26.00;17.50;;;;;;10440603;28;20700;-67
2023/06/27 15:33:42;;;;;;;1.90;1.80;;;26.00;17.50;;;;;;10435660;28;20606;-66
2023/06/27 15:38:47;;;;;;;2.00;1.50;;;26.00;17.30;;;;;;10432600;28;20228;-72
2023/06/27 15:43:50;;;;;;;2.30;1.57;;;26.10;16.80;;;;;;10437706;28;20239;-67
2023/06/27 15:48:54;;;;;;;2.43;1.70;;;26.10;17.20;;;;;;10441084;28;20239;-67
2023/06/27 15:53:59;;;;;;;1.87;1.40;;;26.10;16.90;;;;;;10431611;28;20227;-67
2023/06/27 15:59:02;;;;;;;4.00;1.73;;;26.10;16.40;;;;;;10426393;28;20226;-68
2023/06/27 16:04:05;;;;;;;1.60;1.50;;;26.00;16.60;;;;;;10424255;28;20316;-68
2023/06/27 16:09:10;;;;;;;1.60;1.50;;;26.00;16.70;;;;;;10428696;28;20225;-68
2023/06/27 16:14:15;;;;;;;3.03;1.47;;;26.00;16.70;;;;;;10432004;28;20224;-68
2023/06/27 16:19:18;;;;;;;2.50;1.40;;;26.00;16.60;;;;;;10431447;28;20232;-67
2023/06/27 16:24:22;;;;;;;2.20;1.47;;;25.90;16.80;;;;;;10433187;28;20717;-68
2023/06/27 16:29:25;;;;;;;2.23;1.47;;;25.90;16.80;;;;;;10425436;28;20241;-68
2023/06/27 16:34:28;;;;;;;4.93;1.60;;;25.90;16.80;;;;;;10428405;28;20308;-67
2023/06/27 16:39:33;;;;;;;3.83;1.40;;;25.90;17.00;;;;;;10430298;28;20236;-67
2023/06/27 16:44:36;;;;;;;2.40;1.50;;;25.90;16.70;;;;;;10435352;28;20870;-68
2023/06/27 16:49:40;;;;;;;3.23;1.70;;;26.00;17.70;;;;;;10430363;28;20225;-68
2023/06/27 16:54:44;;;;;;;4.43;1.53;;;26.00;16.80;;;;;;10435769;28;20224;-68
2023/06/27 16:59:47;;;;;;;2.37;1.70;;;26.10;16.60;;;;;;10430009;28;20308;-68
2023/06/27 17:04:50;;;;;;;1.40;1.30;;;26.10;16.70;;;;;;10425488;28;20230;-68
2023/06/27 17:09:55;;;;;;;1.87;1.60;;;26.20;16.40;;;;;;10432184;28;20917;-67
2023/06/27 17:14:58;;;;;;;2.03;1.83;;;26.20;16.40;;;;;;10430758;28;20308;-67
2023/06/27 17:20:02;;;;;;;1.63;1.53;;;26.10;16.50;;;;;;10419775;28;20296;-68
2023/06/27 17:25:08;;;;;;;2.00;1.60;;;26.10;16.60;;;;;;10428037;28;20229;-67
2023/06/27 17:30:12;;;;;;;2.97;1.60;;;26.10;16.50;;;;;;10423140;28;20237;-67
2023/06/27 17:35:15;;;;;;;2.10;1.60;;;26.10;16.70;;;;;;10429157;28;20326;-67
2023/06/27 17:40:19;;;;;;;1.60;1.40;;;26.00;16.70;;;;;;10429977;28;20232;-67
2023/06/27 17:45:23;;;;;;;1.70;1.60;;;26.10;16.40;;;;;;10430068;28;20362;-67
2023/06/27 17:50:26;;;;;;;1.70;1.60;;;26.10;16.60;;;;;;10430247;28;20308;-67
2023/06/27 17:55:31;;;;;;;1.73;1.60;;;26.20;16.70;;;;;;10430359;28;20239;-67
2023/06/27 18:00:34;;;;;;;2.47;1.60;;;26.20;16.60;;;;;;10430186;28;20312;-67
2023/06/27 18:05:37;;;;;;;3.53;1.70;;;26.20;16.60;;;;;;10422715;28;21104;-67
2023/06/27 18:10:43;;;;;;;1.87;1.70;;;26.10;16.60;;;;;;10421225;28;20709;-67
2023/06/27 18:15:48;;;;;;;2.10;1.60;;;26.10;16.50;;;;;;10420782;28;20234;-67
2023/06/27 18:20:51;;;;;;;2.40;1.77;;;26.00;16.70;;;;;;10435635;28;20256;-67
2023/06/27 18:25:56;;;;;;;1.77;1.67;;;26.00;16.70;;;;;;10426826;28;20228;-68
2023/06/27 18:31:01;;;;;;;1.83;1.67;;;26.00;16.80;;;;;;10432759;28;20237;-67
2023/06/27 18:36:05;;;;;;;1.47;1.37;;;25.90;16.90;;;;;;10441096;28;20228;-67
2023/06/27 18:41:10;;;;;;;1.90;1.63;;;25.90;16.90;;;;;;10431213;28;20721;-68
2023/06/27 18:46:13;;;;;;;1.60;1.50;;;25.80;17.00;;;;;;10418763;28;20231;-68
2023/06/27 18:51:17;;;;;;;1.60;1.50;;;25.80;17.30;;;;;;10424218;28;20698;-67
2023/06/27 18:56:22;;;;;;;2.00;1.63;;;25.80;17.50;;;;;;10428404;28;20236;-67
2023/06/27 19:01:25;;;;;;;2.70;1.50;;;25.70;17.00;;;;;;10427042;28;20320;-67
2023/06/27 19:06:29;;;;;;;1.60;1.50;;;25.70;17.00;;;;;;10437078;28;20290;-67
2023/06/27 19:11:35;;;;;;;3.00;1.57;;;25.70;17.40;;;;;;10430256;28;20585;-67
2023/06/27 19:16:38;;;;;;;2.10;1.90;;;25.70;17.40;;;;;;10429282;28;20234;-68
2023/06/27 19:21:42;;;;;;;3.13;1.90;;;25.70;17.70;;;;;;10427587;28;20236;-67
2023/06/27 19:26:46;;;;;;;1.93;1.60;;;25.60;17.80;;;;;;10429981;28;20713;-67
2023/06/27 19:31:50;;;;;;;2.10;1.90;;;25.50;17.80;;;;;;10420296;28;20252;-67
2023/06/27 19:36:53;;;;;;;3.60;1.50;;;25.40;18.20;;;;;;10422203;28;20229;-68
2023/06/27 19:41:58;;;;;;;2.43;1.57;;;25.20;18.60;;;;;;10423723;28;20313;-67
2023/06/27 19:47:01;;;;;;;1.97;1.80;;;25.20;18.60;;;;;;10422286;28;20243;-68
2023/06/27 19:52:05;;;;;;;2.80;1.87;;;25.20;18.60;;;;;;10424485;28;20283;-67
2023/06/27 19:57:12;;;;;;;2.17;1.93;;;25.10;18.60;;;;;;10431919;28;20306;-67
2023/06/27 20:02:15;;;;;;;1.90;1.50;;;25.00;18.50;;;;;;10423284;28;20276;-68
2023/06/27 20:07:18;;;;;;;2.63;1.73;;;25.00;18.50;;;;;;10435557;28;20308;-67
2023/06/27 20:12:23;;;;;;;1.97;1.70;;;25.00;18.50;;;;;;10423655;28;20240;-67
2023/06/27 20:17:26;;;;;;;1.73;1.63;;;24.90;18.50;;;;;;10432820;28;20235;-67
2023/06/27 20:22:30;;;;;;;1.77;1.67;;;24.90;18.50;;;;;;10430489;28;20755;-67
2023/06/27 20:27:34;;;;;;;2.50;1.87;;;24.80;18.40;;;;;;10426421;28;20230;-67
2023/06/27 20:32:38;;;;;;;2.63;1.77;;;24.80;18.50;;;;;;10430689;28;20230;-67
2023/06/27 20:37:41;;;;;;;1.80;1.70;;;24.70;19.00;;;;;;10423603;28;20239;-67
2023/06/27 20:42:46;;;;;;;1.90;1.80;;;24.60;18.90;;;;;;10429567;28;20236;-67
2023/06/27 20:47:51;;;;;;;1.70;1.53;;;24.50;18.90;;;;;;10423742;28;20244;-67
2023/06/27 20:52:54;;;;;;;3.10;1.60;;;24.50;18.80;;;;;;10432646;28;20316;-68
2023/06/27 20:57:59;;;;;;;2.10;1.73;;;24.40;19.00;;;;;;10425692;28;20226;-68
2023/06/27 21:03:02;;;;;;;1.70;1.60;;;24.40;19.10;;;;;;10429252;28;20226;-68
2023/06/27 21:08:05;;;;;;;1.83;1.70;;;24.30;19.20;;;;;;10430243;28;20229;-67
2023/06/27 21:13:10;;;;;;;2.60;2.00;;;24.30;19.20;;;;;;10424403;28;20258;-67
2023/06/27 21:18:13;;;;;;;2.07;1.77;;;24.20;19.40;;;;;;10429228;28;20229;-68
2023/06/27 21:23:17;;;;;;;2.03;1.80;;;24.10;19.20;;;;;;10432581;28;20711;-68
2023/06/27 21:28:21;;;;;;;2.33;1.70;;;24.10;19.20;;;;;;10431320;28;20231;-68
2023/06/27 21:33:24;;;;;;;2.47;1.93;;;24.10;19.30;;;;;;10436532;28;20241;-67
2023/06/27 21:38:27;;;;;;;1.70;1.60;;;24.00;19.20;;;;;;10435263;28;20239;-68
2023/06/27 21:43:32;;;;;;;2.90;2.10;;;23.90;19.30;;;;;;10427844;28;20803;-68
2023/06/27 21:48:35;;;;;;;1.97;1.87;;;23.90;19.50;;;;;;10430116;28;20929;-67
2023/06/27 21:53:39;;;;;;;1.80;1.70;;;23.90;19.60;;;;;;10429807;28;20713;-67
2023/06/27 21:58:43;;;;;;;3.10;1.80;;;23.90;19.70;;;;;;10429426;28;20316;-67
2023/06/27 22:03:48;;;;;;;2.97;1.80;;;23.80;19.80;;;;;;10435441;28;20233;-68
2023/06/27 22:08:52;;;;;;;2.77;1.93;;;23.80;19.80;;;;;;10429813;28;20232;-68
2023/06/27 22:13:56;;;;;;;3.90;1.90;;;23.80;19.80;;;;;;10431534;28;20830;-67
2023/06/27 22:19:00;;;;;;;1.70;1.60;;;23.70;20.10;;;;;;10432337;28;20231;-67
2023/06/27 22:24:03;;;;;;;2.00;1.80;;;23.70;20.20;;;;;;10432050;28;20227;-68
2023/06/27 22:29:07;;;;;;;2.60;1.90;;;23.70;20.30;;;;;;10424700;28;20309;-67
2023/06/27 22:34:10;;;;;;;2.17;1.70;;;23.70;20.60;;;;;;10427481;28;20717;-67
2023/06/27 22:39:14;;;;;;;2.13;1.77;;;23.60;20.50;;;;;;10436981;28;20875;-67
2023/06/27 22:44:18;;;;;;;2.43;2.10;;;23.60;20.60;;;;;;10429188;28;20222;-67
2023/06/27 22:49:22;;;;;;;2.80;1.90;;;23.60;20.80;;;;;;10432000;28;20630;-67
2023/06/27 22:54:25;;;;;;;2.10;1.90;;;23.50;21.00;;;;;;10447305;28;20224;-67
2023/06/27 22:59:30;;;;;;;2.13;1.90;;;23.40;20.90;;;;;;10424143;28;20229;-67
2023/06/27 23:04:33;;;;;;;1.70;1.60;;;23.30;21.40;;;;;;10426821;28;20598;-67
2023/06/27 23:09:36;;;;;;;2.90;2.07;;;23.20;22.20;;;;;;10421483;28;20236;-67
2023/06/27 23:14:41;;;;;;;1.90;1.80;;;23.10;22.50;;;;;;10428193;28;20300;-67
2023/06/27 23:19:49;;;;;;;3.10;2.00;;;23.10;22.40;;;;;;10429060;28;20229;-68
2023/06/27 23:24:52;;;;;;;2.37;1.77;;;22.90;22.20;;;;;;10434434;28;20257;-68
2023/06/27 23:29:57;;;;;;;2.00;1.80;;;22.80;22.40;;;;;;10431634;28;20252;-68
2023/06/27 23:35:00;;;;;;;4.03;2.20;;;22.60;22.80;;;;;;10425946;28;20237;-67
2023/06/27 23:40:06;;;;;;;2.60;1.83;;;22.50;23.10;;;;;;10437052;28;20847;-68
2023/06/27 23:45:11;;;;;;;2.50;1.80;;;22.50;23.30;;;;;;10440886;28;20220;-68
2023/06/27 23:50:14;;;;;;;2.13;1.93;;;22.50;23.70;;;;;;10432823;28;20709;-67
2023/06/27 23:55:18;;;;;;;1.83;1.67;;;22.50;23.30;;;;;;10432279;28;20221;-67
